KOLY/OLY METAR and TAF weather

Enter ICAO airport designator
Station Type Date Time Source
KOLY METAR 2022/01/26 07:55 UTC NOAA

KOLY 260755Z AUTO 32006KT 10SM CLR M12/M17 A3050 RMK AO2 T11181172


Station Type Date Time Source
KOLY Decoded METAR 2022/01/26 07:55 UTC NOAA

Olney-Noble, Olney-Noble Airport, IL, United States (KOLY) 38-43-19N 088-10-35W
Jan 26, 2022 - 02:55 AM EST / 2022.01.26 0755 UTC
Wind: from the NW (320 degrees) at 7 MPH (6 KT):0
Visibility: 10 mile(s):0
Sky conditions: clear
Temperature: 10.8 F (-11.8 C)
Windchill: 0 F (-18 C):1
Dew Point: 1.0 F (-17.2 C)
Relative Humidity: 64%
Pressure (altimeter): 30.5 in. Hg (1032 hPa)
ob: KOLY 260755Z AUTO 32006KT 10SM CLR M12/M17 A3050 RMK AO2 T11181172
cycle: 8

Station Type Date Time Source
KOLY TAF UTC NOAA

Error!

Example: see airport list